createdAt,value
2018-07-31T00:00:41.541Z,12.60
2018-07-31T00:03:09.223Z,11.80
2018-07-31T00:05:37.198Z,13.40
2018-07-31T00:08:04.881Z,13.00
2018-07-31T00:10:32.565Z,14.20
2018-07-31T00:13:00.591Z,13.40
2018-07-31T00:15:28.320Z,11.40
2018-07-31T00:17:56.030Z,13.40
2018-07-31T00:20:23.736Z,10.00
2018-07-31T00:22:51.736Z,11.20
2018-07-31T00:25:19.448Z,12.20
2018-07-31T00:27:47.116Z,11.00
2018-07-31T00:30:14.808Z,12.20
2018-07-31T00:32:42.792Z,12.00
2018-07-31T00:35:10.504Z,11.40
2018-07-31T00:37:38.197Z,9.00
2018-07-31T00:40:07.406Z,9.80
2018-07-31T00:42:35.097Z,9.40
2018-07-31T00:45:03.497Z,8.60
2018-07-31T00:47:31.195Z,8.80
2018-07-31T00:50:00.177Z,10.00
2018-07-31T00:52:27.893Z,10.80
2018-07-31T00:54:55.590Z,13.00
2018-07-31T00:57:23.741Z,10.00
2018-07-31T00:59:51.524Z,10.60
2018-07-31T01:02:19.216Z,10.00
2018-07-31T01:04:47.193Z,11.40
2018-07-31T01:07:15.805Z,9.00
2018-07-31T01:09:43.501Z,9.00
2018-07-31T01:12:11.188Z,10.80
2018-07-31T01:14:39.133Z,12.00
2018-07-31T01:17:06.811Z,10.40
2018-07-31T01:19:34.476Z,7.60
2018-07-31T01:22:02.173Z,12.60
2018-07-31T01:24:30.271Z,12.00
2018-07-31T01:26:57.945Z,12.60
2018-07-31T01:29:25.649Z,11.20
2018-07-31T01:31:53.643Z,10.20
2018-07-31T01:34:21.361Z,10.00
2018-07-31T01:36:49.044Z,12.00
2018-07-31T01:39:16.696Z,14.40
2018-07-31T01:41:45.400Z,14.80
2018-07-31T01:44:13.087Z,13.60
2018-07-31T01:46:40.808Z,13.80
2018-07-31T01:49:08.516Z,14.80
2018-07-31T01:51:36.609Z,13.00
2018-07-31T01:54:04.317Z,15.20
2018-07-31T01:56:32.744Z,13.20
2018-07-31T01:59:00.454Z,11.80
2018-07-31T02:01:28.463Z,9.00
2018-07-31T02:03:56.151Z,12.20
2018-07-31T02:06:26.960Z,14.40
2018-07-31T02:08:54.704Z,13.40
2018-07-31T02:11:22.689Z,13.00
2018-07-31T02:13:50.386Z,14.00
2018-07-31T02:16:18.110Z,11.00
2018-07-31T02:18:45.812Z,14.60
2018-07-31T02:21:13.828Z,12.40
2018-07-31T02:23:41.532Z,12.00
2018-07-31T02:26:09.273Z,15.00
2018-07-31T02:28:36.986Z,12.80
2018-07-31T02:31:05.097Z,13.00
2018-07-31T02:33:32.830Z,12.00
2018-07-31T02:36:00.530Z,11.00
2018-07-31T02:38:28.253Z,14.60
2018-07-31T02:40:56.299Z,16.80
2018-07-31T02:43:23.985Z,11.20
2018-07-31T02:45:51.713Z,10.80
2018-07-31T02:48:19.391Z,15.00
2018-07-31T02:50:47.413Z,15.20
2018-07-31T02:53:15.125Z,15.60
2018-07-31T02:55:42.869Z,14.40
2018-07-31T02:58:10.571Z,14.40
2018-07-31T03:00:38.673Z,12.40
2018-07-31T03:03:06.385Z,12.80
2018-07-31T03:05:34.881Z,13.00
2018-07-31T03:08:03.545Z,15.20
2018-07-31T03:10:31.936Z,12.40
2018-07-31T03:12:59.612Z,13.00
2018-07-31T03:15:27.321Z,15.20
2018-07-31T03:17:55.268Z,14.00
2018-07-31T03:20:22.945Z,13.00
2018-07-31T03:22:50.645Z,12.80
2018-07-31T03:25:18.777Z,14.40
2018-07-31T03:27:46.445Z,14.20
2018-07-31T03:30:14.139Z,13.60
2018-07-31T03:32:41.813Z,16.80
2018-07-31T03:35:09.544Z,12.20
2018-07-31T03:37:37.225Z,14.00
2018-07-31T03:40:05.198Z,11.20
2018-07-31T03:42:32.863Z,14.20
2018-07-31T03:45:00.580Z,14.00
2018-07-31T03:47:28.596Z,13.80
2018-07-31T03:49:56.326Z,12.40
2018-07-31T03:52:24.021Z,11.20
2018-07-31T03:54:52.421Z,10.40
2018-07-31T03:57:20.472Z,14.60
2018-07-31T03:59:48.164Z,13.40
2018-07-31T04:02:16.578Z,13.00
2018-07-31T04:04:44.330Z,13.00
2018-07-31T04:07:13.663Z,14.40
2018-07-31T04:09:41.398Z,14.80
2018-07-31T04:12:09.101Z,14.60
2018-07-31T04:14:37.170Z,12.80
2018-07-31T04:17:04.942Z,14.40
2018-07-31T04:19:32.641Z,18.40
2018-07-31T04:22:00.317Z,15.20
2018-07-31T04:24:28.427Z,15.60
2018-07-31T04:26:57.589Z,16.20
2018-07-31T04:29:25.373Z,15.60
2018-07-31T04:31:53.213Z,17.40
2018-07-31T04:34:21.190Z,14.20
2018-07-31T04:36:49.568Z,15.60
2018-07-31T04:39:17.277Z,14.40
2018-07-31T04:41:46.237Z,13.80
2018-07-31T04:44:13.916Z,11.40
2018-07-31T04:46:41.600Z,14.80
2018-07-31T04:49:09.636Z,13.20
2018-07-31T04:51:37.318Z,14.80
2018-07-31T04:54:05.017Z,13.00
2018-07-31T04:56:32.979Z,15.40
2018-07-31T04:59:00.707Z,17.40
2018-07-31T05:01:28.411Z,17.00
2018-07-31T05:03:56.613Z,14.40
2018-07-31T05:06:24.352Z,14.00
2018-07-31T05:08:52.078Z,18.00
2018-07-31T05:11:20.817Z,17.60
2018-07-31T05:13:48.570Z,16.80
2018-07-31T05:16:16.254Z,13.80
2018-07-31T05:18:48.692Z,14.00
2018-07-31T05:21:16.401Z,14.60
2018-07-31T05:23:44.103Z,16.00
2018-07-31T05:26:13.106Z,15.80
2018-07-31T05:28:40.834Z,16.80
2018-07-31T05:31:08.546Z,15.60
2018-07-31T05:33:36.517Z,14.80
2018-07-31T05:36:04.173Z,17.00
2018-07-31T05:38:32.421Z,16.20
2018-07-31T05:41:00.395Z,15.80
2018-07-31T05:43:28.146Z,13.60
2018-07-31T05:45:56.384Z,13.00
2018-07-31T05:48:24.336Z,15.80
2018-07-31T05:50:52.013Z,11.80
2018-07-31T05:53:19.726Z,14.20
2018-07-31T05:55:47.918Z,12.60
2018-07-31T05:58:15.712Z,17.00
2018-07-31T06:00:43.430Z,13.40
2018-07-31T06:03:11.457Z,14.80
2018-07-31T06:05:39.182Z,13.20
2018-07-31T06:08:06.860Z,16.60
2018-07-31T06:10:35.195Z,15.60
2018-07-31T06:13:02.976Z,16.20
2018-07-31T06:15:30.693Z,12.20
2018-07-31T06:17:58.649Z,15.00
2018-07-31T06:20:26.337Z,13.40
2018-07-31T06:22:54.816Z,13.00
2018-07-31T06:25:22.888Z,11.80
2018-07-31T06:27:50.607Z,14.00
2018-07-31T06:30:18.295Z,13.80
2018-07-31T06:32:46.316Z,16.80
2018-07-31T06:35:14.644Z,15.60
2018-07-31T06:37:42.602Z,15.80
2018-07-31T06:40:11.897Z,18.80
2018-07-31T06:42:39.581Z,16.60
2018-07-31T06:45:07.704Z,21.00
2018-07-31T06:47:35.648Z,18.60
2018-07-31T06:50:03.351Z,23.60
2018-07-31T06:52:31.065Z,19.40
2018-07-31T06:54:59.103Z,20.00
2018-07-31T06:57:26.807Z,18.40
2018-07-31T06:59:54.509Z,21.40
2018-07-31T07:02:22.482Z,22.20
2018-07-31T07:04:50.177Z,19.20
2018-07-31T07:07:17.890Z,19.80
2018-07-31T07:09:45.866Z,22.40
2018-07-31T07:12:13.544Z,21.20
2018-07-31T07:14:43.103Z,18.20
2018-07-31T07:17:12.037Z,23.60
2018-07-31T07:19:39.757Z,22.20
2018-07-31T07:22:07.469Z,16.80
2018-07-31T07:24:35.458Z,13.60
2018-07-31T07:27:03.178Z,12.80
2018-07-31T07:29:30.936Z,17.20
2018-07-31T07:31:58.924Z,16.60
2018-07-31T07:34:30.762Z,19.20
2018-07-31T07:36:58.888Z,15.00
2018-07-31T07:39:27.413Z,18.60
2018-07-31T07:41:55.153Z,19.00
2018-07-31T07:44:22.853Z,17.00
2018-07-31T07:46:51.218Z,16.00
2018-07-31T07:49:19.029Z,14.20
2018-07-31T07:51:46.695Z,14.60
2018-07-31T07:54:14.717Z,19.80
2018-07-31T07:56:44.109Z,16.60
2018-07-31T07:59:11.784Z,13.00
2018-07-31T08:01:40.114Z,18.00
2018-07-31T08:04:09.443Z,12.40
2018-07-31T08:06:37.127Z,13.40
2018-07-31T08:09:05.727Z,10.80
2018-07-31T08:11:33.426Z,12.00
2018-07-31T08:14:01.104Z,7.40
2018-07-31T08:16:30.515Z,12.60
2018-07-31T08:18:58.224Z,9.00
2018-07-31T08:21:29.473Z,15.00
2018-07-31T08:23:57.494Z,11.40
2018-07-31T08:26:25.212Z,13.80
2018-07-31T08:28:53.960Z,14.80
2018-07-31T08:31:21.949Z,15.60
2018-07-31T08:33:50.356Z,16.60
2018-07-31T08:36:19.484Z,15.00
2018-07-31T08:38:47.476Z,15.00
2018-07-31T08:41:15.208Z,11.20
2018-07-31T08:43:42.887Z,8.80
2018-07-31T08:46:10.856Z,7.00
2018-07-31T08:48:38.573Z,8.80
2018-07-31T08:51:07.007Z,13.40
2018-07-31T08:53:35.990Z,9.00
2018-07-31T08:56:03.744Z,8.80
2018-07-31T08:58:32.412Z,8.40
2018-07-31T09:01:00.497Z,10.20
2018-07-31T09:03:28.220Z,7.40
2018-07-31T09:05:56.893Z,11.80
2018-07-31T09:08:26.404Z,9.00
2018-07-31T09:10:54.320Z,6.00
2018-07-31T09:13:22.085Z,5.00
2018-07-31T09:15:51.381Z,6.20
2018-07-31T09:18:20.357Z,7.60
2018-07-31T09:20:48.073Z,5.00
2018-07-31T09:23:17.099Z,6.00
2018-07-31T09:25:45.773Z,6.40
2018-07-31T09:28:13.804Z,7.80
2018-07-31T09:30:46.772Z,7.00
2018-07-31T09:33:16.321Z,3.20
2018-07-31T09:35:43.966Z,5.40
2018-07-31T09:38:12.130Z,4.00
2018-07-31T09:40:39.845Z,4.20
2018-07-31T09:43:07.577Z,5.60
2018-07-31T09:45:35.632Z,4.20
2018-07-31T09:48:03.305Z,5.00
2018-07-31T09:50:31.415Z,5.00
2018-07-31T09:52:59.817Z,5.00
2018-07-31T09:55:27.552Z,3.60
2018-07-31T09:57:55.281Z,5.80
2018-07-31T10:00:28.429Z,6.00
2018-07-31T10:02:56.243Z,5.00
2018-07-31T10:05:24.267Z,4.80
2018-07-31T10:07:53.262Z,5.00
2018-07-31T10:10:20.944Z,4.00
2018-07-31T10:12:49.165Z,6.00
2018-07-31T10:15:17.703Z,5.00
2018-07-31T10:17:45.549Z,3.00
2018-07-31T10:20:14.340Z,5.20
2018-07-31T10:22:42.060Z,5.40
2018-07-31T10:25:09.728Z,3.40
2018-07-31T10:27:38.552Z,3.80
2018-07-31T10:30:06.365Z,4.40
2018-07-31T10:32:34.057Z,4.80
2018-07-31T10:35:03.860Z,5.00
2018-07-31T10:37:33.239Z,4.00
2018-07-31T10:40:01.256Z,4.00
2018-07-31T10:42:29.439Z,3.00
2018-07-31T10:44:57.405Z,5.00
2018-07-31T10:47:26.245Z,4.00
2018-07-31T10:49:54.909Z,3.80
2018-07-31T10:52:22.612Z,3.60
2018-07-31T10:54:50.305Z,2.80
2018-07-31T10:57:18.337Z,1.60
2018-07-31T10:59:46.187Z,4.80
2018-07-31T11:02:15.525Z,3.20
2018-07-31T11:04:44.284Z,5.00
2018-07-31T11:07:12.082Z,4.00
2018-07-31T11:09:39.878Z,3.00
2018-07-31T11:12:07.926Z,4.20
2018-07-31T11:14:36.632Z,3.20
2018-07-31T11:17:07.601Z,3.80
2018-07-31T11:19:36.205Z,3.20
2018-07-31T11:22:03.922Z,4.40
2018-07-31T11:24:31.709Z,2.80
2018-07-31T11:26:59.906Z,3.80
2018-07-31T11:29:27.600Z,4.00
2018-07-31T11:31:56.384Z,3.80
2018-07-31T11:34:25.573Z,4.20
2018-07-31T11:36:53.329Z,3.00
2018-07-31T11:39:21.598Z,4.20
2018-07-31T11:41:50.680Z,3.00
2018-07-31T11:44:18.944Z,3.80
2018-07-31T11:46:46.620Z,4.20
2018-07-31T11:49:14.745Z,6.00
2018-07-31T11:51:42.446Z,3.60
2018-07-31T11:54:10.823Z,5.60
2018-07-31T11:56:38.968Z,5.40
2018-07-31T11:59:06.680Z,7.00
2018-07-31T12:01:34.613Z,6.80
2018-07-31T12:04:03.482Z,7.80
2018-07-31T12:06:31.336Z,6.80
2018-07-31T12:09:01.031Z,8.20
2018-07-31T12:11:29.035Z,8.00
2018-07-31T12:13:57.474Z,9.40
2018-07-31T12:16:25.278Z,10.80
2018-07-31T12:18:54.518Z,9.00
2018-07-31T12:21:23.360Z,7.40
2018-07-31T12:23:51.044Z,7.60
2018-07-31T12:26:20.028Z,7.40
2018-07-31T12:28:47.726Z,8.00
2018-07-31T12:31:15.408Z,7.20
2018-07-31T12:33:44.197Z,7.80
2018-07-31T12:36:12.452Z,7.60
2018-07-31T12:38:40.157Z,8.20
2018-07-31T12:41:09.204Z,6.20
2018-07-31T12:43:44.329Z,8.00
2018-07-31T12:46:13.584Z,5.00
2018-07-31T12:48:41.650Z,6.00
2018-07-31T12:51:09.601Z,6.60
2018-07-31T12:53:38.336Z,7.00
2018-07-31T12:56:13.578Z,5.60
2018-07-31T12:58:43.288Z,8.00
2018-07-31T13:01:11.220Z,5.80
2018-07-31T13:03:39.965Z,6.00
2018-07-31T13:06:08.260Z,6.00
2018-07-31T13:08:35.944Z,6.40
2018-07-31T13:11:03.621Z,6.40
2018-07-31T13:13:31.681Z,6.40
2018-07-31T13:16:01.825Z,7.00
2018-07-31T13:18:30.437Z,7.00
2018-07-31T13:21:00.261Z,5.80
2018-07-31T13:23:27.938Z,4.80
2018-07-31T13:25:55.623Z,6.00
2018-07-31T13:28:25.967Z,5.40
2018-07-31T13:30:54.194Z,5.40
2018-07-31T13:33:21.900Z,5.60
2018-07-31T13:35:49.993Z,5.80
2018-07-31T13:38:17.737Z,4.40
2018-07-31T13:40:46.358Z,3.80
2018-07-31T13:43:14.740Z,5.00
2018-07-31T13:45:42.498Z,5.00
2018-07-31T13:48:11.289Z,5.80
2018-07-31T13:50:45.003Z,4.00
2018-07-31T13:53:12.673Z,4.80
2018-07-31T13:55:41.208Z,5.00
2018-07-31T13:58:11.280Z,4.20
2018-07-31T14:00:40.357Z,4.00
2018-07-31T14:03:08.992Z,4.20
2018-07-31T14:05:38.910Z,4.60
2018-07-31T14:08:08.189Z,4.40
2018-07-31T14:10:36.815Z,3.00
2018-07-31T14:13:04.913Z,4.80
2018-07-31T14:15:32.590Z,4.00
2018-07-31T14:18:00.829Z,4.00
2018-07-31T14:20:30.731Z,4.20
2018-07-31T14:22:58.439Z,3.40
2018-07-31T14:25:26.153Z,3.00
2018-07-31T14:27:54.283Z,4.00
2018-07-31T14:30:22.018Z,5.60
2018-07-31T14:32:49.769Z,5.80
2018-07-31T14:35:21.892Z,3.60
2018-07-31T14:37:50.204Z,3.00
2018-07-31T14:40:17.919Z,4.00
2018-07-31T14:42:47.023Z,3.80
2018-07-31T14:45:14.711Z,4.40
2018-07-31T14:47:42.419Z,3.20
2018-07-31T14:50:13.303Z,4.80
2018-07-31T14:52:42.029Z,3.00
2018-07-31T14:55:10.283Z,5.20
2018-07-31T14:57:39.299Z,4.60
2018-07-31T15:00:07.374Z,4.00
2018-07-31T15:02:35.392Z,4.60
2018-07-31T15:05:05.611Z,3.00
2018-07-31T15:07:33.295Z,4.00
2018-07-31T15:10:01.862Z,3.20
2018-07-31T15:12:31.473Z,4.00
2018-07-31T15:15:01.337Z,5.00
2018-07-31T15:17:29.120Z,5.00
2018-07-31T15:20:00.757Z,5.00
2018-07-31T15:22:28.532Z,4.40
2018-07-31T15:24:56.229Z,4.40
2018-07-31T15:27:24.360Z,4.20
2018-07-31T15:29:52.560Z,3.60
2018-07-31T15:32:20.257Z,3.60
2018-07-31T15:34:49.203Z,4.00
2018-07-31T15:37:16.897Z,4.00
2018-07-31T15:39:44.608Z,5.00
2018-07-31T15:42:12.803Z,4.40
2018-07-31T15:44:40.489Z,5.20
2018-07-31T15:47:08.160Z,4.00
2018-07-31T15:49:36.932Z,4.80
2018-07-31T15:52:04.729Z,3.80
2018-07-31T15:54:32.397Z,5.00
2018-07-31T15:57:01.053Z,4.00
2018-07-31T15:59:28.800Z,4.00
2018-07-31T16:01:56.449Z,3.00
2018-07-31T16:04:26.420Z,2.00
2018-07-31T16:06:54.640Z,3.60
2018-07-31T16:09:22.540Z,4.00
2018-07-31T16:11:51.716Z,3.00
2018-07-31T16:14:20.229Z,3.00
2018-07-31T16:16:47.985Z,4.00
2018-07-31T16:19:21.609Z,1.00
2018-07-31T16:21:49.349Z,2.60
2018-07-31T16:24:17.053Z,3.20
2018-07-31T16:26:45.251Z,3.20
2018-07-31T16:29:12.957Z,2.20
2018-07-31T16:31:40.711Z,3.20
2018-07-31T16:34:09.199Z,2.00
2018-07-31T16:36:37.452Z,3.80
2018-07-31T16:39:10.769Z,2.60
2018-07-31T16:41:42.648Z,4.00
2018-07-31T16:44:10.341Z,3.00
2018-07-31T16:46:38.537Z,4.40
2018-07-31T16:49:06.688Z,3.00
2018-07-31T16:51:34.440Z,4.00
2018-07-31T16:54:02.172Z,3.20
2018-07-31T16:56:31.270Z,3.00
2018-07-31T16:58:59.780Z,4.00
2018-07-31T17:01:28.661Z,3.00
2018-07-31T17:03:58.432Z,2.20
2018-07-31T17:06:26.176Z,2.20
2018-07-31T17:08:54.809Z,2.00
2018-07-31T17:11:23.610Z,2.00
2018-07-31T17:13:51.345Z,3.00
2018-07-31T17:16:19.021Z,4.00
2018-07-31T17:18:48.219Z,2.00
2018-07-31T17:21:16.890Z,1.00
2018-07-31T17:23:45.177Z,0.00
2018-07-31T17:26:15.537Z,2.00
2018-07-31T17:28:45.712Z,1.60
2018-07-31T17:31:14.059Z,2.00
2018-07-31T17:33:45.977Z,1.60
2018-07-31T17:36:14.257Z,1.60
2018-07-31T17:38:41.944Z,1.00
2018-07-31T17:41:09.979Z,3.00
2018-07-31T17:43:37.725Z,2.00
2018-07-31T17:46:09.788Z,1.00
2018-07-31T17:48:37.909Z,1.80
2018-07-31T17:51:05.580Z,2.00
2018-07-31T17:53:33.329Z,2.60
2018-07-31T17:56:02.368Z,1.00
2018-07-31T17:58:30.042Z,2.00
2018-07-31T18:00:57.740Z,1.40
2018-07-31T18:03:26.793Z,2.00
2018-07-31T18:05:54.453Z,2.20
2018-07-31T18:08:22.166Z,2.00
2018-07-31T18:10:51.387Z,2.40
2018-07-31T18:13:19.104Z,3.00
2018-07-31T18:15:47.309Z,3.00
2018-07-31T18:18:17.020Z,3.00
2018-07-31T18:20:45.256Z,3.00
2018-07-31T18:23:12.930Z,3.00
2018-07-31T18:25:41.887Z,4.20
2018-07-31T18:28:10.137Z,4.40
2018-07-31T18:30:37.869Z,3.80
2018-07-31T18:33:07.449Z,3.60
2018-07-31T18:35:36.544Z,4.20
2018-07-31T18:38:06.471Z,4.40
2018-07-31T18:40:35.817Z,4.00
2018-07-31T18:43:04.078Z,6.00
2018-07-31T18:45:32.268Z,5.40
2018-07-31T18:48:00.804Z,3.40
2018-07-31T18:50:28.749Z,3.00
2018-07-31T18:53:00.688Z,4.40
2018-07-31T18:55:31.959Z,5.80
2018-07-31T18:58:00.195Z,4.60
2018-07-31T19:00:30.062Z,4.20
2018-07-31T19:02:58.629Z,5.00
2018-07-31T19:05:27.156Z,7.00
2018-07-31T19:07:55.938Z,6.80
2018-07-31T19:10:24.580Z,5.80
2018-07-31T19:12:53.589Z,5.60
2018-07-31T19:15:24.208Z,4.00
2018-07-31T19:17:53.064Z,5.00
2018-07-31T19:20:21.771Z,6.20
2018-07-31T19:22:53.347Z,7.00
2018-07-31T19:25:21.680Z,4.40
2018-07-31T19:27:49.437Z,5.60
2018-07-31T19:30:17.607Z,8.00
2018-07-31T19:32:46.389Z,7.00
2018-07-31T19:35:17.226Z,7.00
2018-07-31T19:37:46.260Z,6.80
2018-07-31T19:40:13.921Z,5.40
2018-07-31T19:42:41.641Z,6.60
2018-07-31T19:45:10.567Z,7.00
2018-07-31T19:47:39.394Z,7.20
2018-07-31T19:50:08.413Z,6.00
2018-07-31T19:52:39.050Z,7.00
2018-07-31T19:55:06.732Z,7.20
2018-07-31T19:57:34.437Z,7.40
2018-07-31T20:00:02.476Z,7.20
2018-07-31T20:02:31.935Z,6.20
2018-07-31T20:04:59.621Z,9.00
2018-07-31T20:07:28.440Z,9.00
2018-07-31T20:09:57.161Z,10.60
2018-07-31T20:12:25.792Z,8.00
2018-07-31T20:14:55.345Z,10.00
2018-07-31T20:17:23.909Z,7.80
2018-07-31T20:19:53.960Z,8.80
2018-07-31T20:22:23.581Z,8.40
2018-07-31T20:24:54.291Z,12.00
2018-07-31T20:27:23.377Z,12.20
2018-07-31T20:29:52.221Z,8.20
2018-07-31T20:32:21.204Z,8.40
2018-07-31T20:34:48.940Z,11.00
2018-07-31T20:37:17.989Z,10.60
2018-07-31T20:42:17.820Z,8.80
2018-07-31T20:44:47.220Z,9.20
2018-07-31T20:47:15.898Z,10.40
2018-07-31T20:49:46.587Z,7.60
2018-07-31T20:52:14.692Z,6.80
2018-07-31T20:54:46.837Z,8.00
2018-07-31T20:57:14.552Z,7.00
2018-07-31T20:59:42.658Z,7.20
2018-07-31T21:02:12.633Z,7.60
2018-07-31T21:04:41.309Z,7.00
2018-07-31T21:07:09.509Z,6.80
2018-07-31T21:09:39.585Z,7.60
2018-07-31T21:12:09.688Z,7.00
2018-07-31T21:14:38.584Z,7.00
2018-07-31T21:17:06.322Z,7.00
2018-07-31T21:19:35.924Z,6.80
2018-07-31T21:22:04.729Z,5.40
2018-07-31T21:24:32.733Z,7.00
2018-07-31T21:27:02.665Z,6.00
2018-07-31T21:29:30.809Z,6.00
2018-07-31T21:32:02.245Z,4.60
2018-07-31T21:34:33.984Z,6.60
2018-07-31T21:37:02.077Z,6.00
2018-07-31T21:39:30.375Z,6.80
2018-07-31T21:41:59.032Z,8.20
2018-07-31T21:44:27.841Z,7.60
2018-07-31T21:47:00.423Z,8.20
2018-07-31T21:49:28.707Z,7.00
2018-07-31T21:51:56.803Z,7.00
2018-07-31T21:54:26.599Z,6.00
2018-07-31T21:56:55.389Z,6.00
2018-07-31T21:59:24.332Z,7.60
2018-07-31T22:01:53.307Z,6.20
2018-07-31T22:04:20.894Z,5.20
2018-07-31T22:06:48.907Z,6.00
2018-07-31T22:09:17.599Z,6.00
2018-07-31T22:11:45.218Z,6.00
2018-07-31T22:14:13.806Z,7.00
2018-07-31T22:16:42.479Z,4.60
2018-07-31T22:19:10.888Z,6.60
2018-07-31T22:21:38.470Z,5.40
2018-07-31T22:24:06.085Z,4.20
2018-07-31T22:26:34.802Z,6.60
2018-07-31T22:29:02.448Z,5.60
2018-07-31T22:31:30.643Z,6.00
2018-07-31T22:33:59.085Z,5.40
2018-07-31T22:36:27.007Z,7.00
2018-07-31T22:38:54.635Z,6.00
2018-07-31T22:41:22.230Z,6.20
2018-07-31T22:43:52.242Z,8.80
2018-07-31T22:46:20.804Z,5.80
2018-07-31T22:48:48.410Z,6.20
2018-07-31T22:51:16.981Z,6.00
2018-07-31T22:53:44.934Z,7.80
2018-07-31T22:56:13.484Z,7.20
2018-07-31T22:58:41.080Z,6.60
2018-07-31T23:01:08.685Z,6.00
2018-07-31T23:03:36.595Z,4.20
2018-07-31T23:06:05.208Z,6.00
2018-07-31T23:08:32.828Z,7.20
2018-07-31T23:11:00.999Z,7.20
2018-07-31T23:13:29.819Z,6.80
2018-07-31T23:15:57.451Z,6.80
2018-07-31T23:18:25.038Z,7.20
2018-07-31T23:20:52.691Z,5.80
2018-07-31T23:23:20.586Z,5.00
2018-07-31T23:25:48.218Z,8.20
2018-07-31T23:28:15.798Z,6.20
2018-07-31T23:30:43.695Z,5.00
2018-07-31T23:33:11.612Z,5.20
2018-07-31T23:35:40.405Z,4.60
2018-07-31T23:38:08.062Z,5.60
2018-07-31T23:40:35.723Z,5.00
2018-07-31T23:43:03.348Z,5.20
2018-07-31T23:45:30.942Z,4.20
2018-07-31T23:47:58.584Z,6.20
2018-07-31T23:50:27.515Z,5.80
2018-07-31T23:52:55.138Z,5.60
2018-07-31T23:55:22.758Z,5.00
2018-07-31T23:57:50.626Z,3.80
